createdAt,value
2022-08-09T00:00:35.173Z,2.50
2022-08-09T00:04:05.565Z,2.38
2022-08-09T00:06:16.520Z,2.55
2022-08-09T00:08:49.966Z,2.10
2022-08-09T00:11:24.312Z,2.50
2022-08-09T00:13:52.866Z,2.38
2022-08-09T00:16:26.262Z,2.40
2022-08-09T00:19:09.510Z,2.45
2022-08-09T00:21:56.288Z,2.63
2022-08-09T00:24:27.551Z,2.45
2022-08-09T00:26:56.175Z,2.55
2022-08-09T00:30:10.447Z,2.40
2022-08-09T00:32:13.086Z,2.60
2022-08-09T00:34:53.381Z,2.53
2022-08-09T00:37:20.642Z,2.60
2022-08-09T00:40:13.597Z,2.30
2022-08-09T00:44:16.792Z,2.33
2022-08-09T00:45:22.754Z,2.67
2022-08-09T00:47:50.019Z,3.08
2022-08-09T00:50:17.378Z,2.30
2022-08-09T00:52:44.630Z,2.55
2022-08-09T00:55:32.828Z,2.47
2022-08-09T00:58:00.001Z,2.53
2022-08-09T01:00:28.804Z,2.50
2022-08-09T01:03:28.482Z,2.60
2022-08-09T01:06:17.766Z,2.58
2022-08-09T01:09:19.101Z,2.45
2022-08-09T01:12:19.006Z,2.47
2022-08-09T01:15:05.997Z,2.40
2022-08-09T01:17:57.753Z,2.83
2022-08-09T01:20:50.500Z,2.35
2022-08-09T01:24:02.107Z,2.83
2022-08-09T01:26:52.770Z,2.40
2022-08-09T01:29:28.639Z,2.30
2022-08-09T01:32:32.231Z,2.78
2022-08-09T01:38:05.908Z,2.10
2022-08-09T01:40:28.512Z,2.30
2022-08-09T01:42:57.246Z,2.30
2022-08-09T01:45:26.579Z,2.60
2022-08-09T01:47:58.969Z,2.25
2022-08-09T01:50:36.635Z,2.35
2022-08-09T01:53:19.981Z,2.30
2022-08-09T01:55:51.809Z,2.10
2022-08-09T01:58:24.320Z,1.73
2022-08-09T02:00:53.744Z,2.38
2022-08-09T02:03:22.450Z,2.50
2022-08-09T02:06:06.570Z,2.65
2022-08-09T02:08:57.221Z,2.50
2022-08-09T02:14:15.855Z,2.75
2022-08-09T02:16:59.570Z,2.65
2022-08-09T02:19:43.847Z,2.65
2022-08-09T02:22:31.631Z,2.60
2022-08-09T02:25:04.748Z,2.78
2022-08-09T02:27:57.538Z,2.50
2022-08-09T02:30:26.340Z,2.20
2022-08-09T02:32:55.323Z,2.38
2022-08-09T02:36:01.867Z,2.57
2022-08-09T02:38:27.974Z,2.55
2022-08-09T02:41:03.399Z,2.38
2022-08-09T02:43:42.384Z,2.47
2022-08-09T02:46:24.688Z,2.47
2022-08-09T02:48:53.937Z,2.40
2022-08-09T02:51:22.874Z,2.40
2022-08-09T02:54:00.507Z,2.80
2022-08-09T02:56:30.766Z,2.60
2022-08-09T02:59:01.914Z,2.77
2022-08-09T03:01:42.703Z,2.88
2022-08-09T03:04:19.334Z,2.80
2022-08-09T03:06:49.174Z,2.58
2022-08-09T03:09:17.875Z,2.73
2022-08-09T03:12:06.251Z,2.70
2022-08-09T03:14:34.089Z,2.38
2022-08-09T03:17:05.585Z,2.50
2022-08-09T03:19:58.439Z,2.60
2022-08-09T03:22:25.316Z,2.60
2022-08-09T03:25:06.707Z,2.67
2022-08-09T03:27:52.100Z,2.40
2022-08-09T03:30:29.733Z,2.50
2022-08-09T03:33:05.570Z,2.88
2022-08-09T03:36:11.873Z,2.65
2022-08-09T03:38:28.702Z,2.60
2022-08-09T03:40:58.413Z,3.03
2022-08-09T03:43:31.607Z,2.90
2022-08-09T03:46:04.037Z,2.70
2022-08-09T03:48:53.111Z,2.85
2022-08-09T03:51:55.142Z,2.78
2022-08-09T03:54:15.959Z,2.70
2022-08-09T03:56:46.574Z,3.10
2022-08-09T03:59:20.945Z,3.30
2022-08-09T04:01:59.096Z,3.08
2022-08-09T04:04:32.651Z,3.22
2022-08-09T04:07:06.688Z,2.70
2022-08-09T04:09:48.152Z,3.30
2022-08-09T04:12:53.737Z,2.90
2022-08-09T04:15:38.969Z,2.92
2022-08-09T04:18:18.119Z,2.97
2022-08-09T04:20:50.452Z,3.45
2022-08-09T04:23:24.396Z,2.83
2022-08-09T04:25:56.954Z,2.90
2022-08-09T04:28:34.217Z,3.40
2022-08-09T04:31:09.162Z,3.13
2022-08-09T04:33:53.049Z,3.13
2022-08-09T04:36:29.867Z,3.20
2022-08-09T04:39:00.638Z,3.08
2022-08-09T04:41:32.175Z,3.00
2022-08-09T04:44:06.865Z,3.20
2022-08-09T04:46:59.580Z,3.30
2022-08-09T04:49:30.484Z,3.20
2022-08-09T04:52:18.154Z,3.53
2022-08-09T04:54:52.148Z,3.40
2022-08-09T04:57:23.869Z,3.35
2022-08-09T04:59:52.748Z,3.58
2022-08-09T05:02:20.060Z,3.25
2022-08-09T05:04:47.623Z,2.92
2022-08-09T05:07:18.944Z,3.25
2022-08-09T05:09:49.784Z,3.40
2022-08-09T05:12:17.760Z,3.40
2022-08-09T05:14:48.293Z,3.47
2022-08-09T05:18:42.927Z,3.33
2022-08-09T05:20:05.555Z,3.22
2022-08-09T05:22:36.044Z,3.38
2022-08-09T05:25:21.110Z,3.58
2022-08-09T05:27:48.609Z,3.53
2022-08-09T05:30:17.687Z,3.60
2022-08-09T05:32:50.690Z,3.50
2022-08-09T05:35:18.758Z,3.10
2022-08-09T05:37:50.745Z,3.20
2022-08-09T05:40:18.731Z,3.30
2022-08-09T05:42:47.049Z,3.25
2022-08-09T05:45:15.170Z,3.20
2022-08-09T05:47:52.425Z,3.08
2022-08-09T05:50:39.996Z,3.03
2022-08-09T05:53:31.688Z,3.10
2022-08-09T05:56:01.496Z,3.22
2022-08-09T05:58:29.270Z,2.92
2022-08-09T06:00:56.582Z,3.17
2022-08-09T06:03:25.610Z,3.05
2022-08-09T06:06:05.945Z,3.30
2022-08-09T06:08:34.202Z,3.20
2022-08-09T06:11:16.337Z,3.08
2022-08-09T06:13:47.394Z,3.10
2022-08-09T06:16:15.129Z,2.85
2022-08-09T06:18:43.701Z,2.83
2022-08-09T06:21:11.135Z,3.10
2022-08-09T06:23:58.206Z,3.00
2022-08-09T06:26:28.165Z,2.92
2022-08-09T06:31:40.156Z,3.13
2022-08-09T06:34:22.533Z,2.97
2022-08-09T06:36:57.270Z,2.70
2022-08-09T06:39:48.422Z,3.20
2022-08-09T06:42:24.882Z,3.08
2022-08-09T06:44:57.439Z,3.10
2022-08-09T06:47:24.845Z,2.97
2022-08-09T06:50:13.479Z,3.22
2022-08-09T06:52:48.893Z,3.33
2022-08-09T06:55:18.889Z,2.90
2022-08-09T06:58:03.623Z,3.10
2022-08-09T07:00:54.686Z,2.63
2022-08-09T07:03:27.893Z,2.70
2022-08-09T07:06:03.112Z,3.03
2022-08-09T07:08:31.611Z,2.70
2022-08-09T07:10:59.036Z,3.00
2022-08-09T07:13:29.336Z,3.08
2022-08-09T07:16:42.868Z,2.70
2022-08-09T07:18:47.388Z,3.25
2022-08-09T07:21:17.191Z,3.65
2022-08-09T07:23:56.422Z,3.22
2022-08-09T07:26:26.334Z,3.05
2022-08-09T07:29:01.317Z,2.85
2022-08-09T07:31:45.218Z,3.13
2022-08-09T07:34:20.390Z,3.20
2022-08-09T07:36:49.668Z,2.95
2022-08-09T07:39:20.301Z,2.75
2022-08-09T07:42:06.409Z,3.10
2022-08-09T07:44:51.609Z,2.88
2022-08-09T07:47:23.254Z,3.20
2022-08-09T07:50:07.670Z,2.85
2022-08-09T07:52:36.843Z,3.20
2022-08-09T07:55:09.685Z,3.10
2022-08-09T07:57:47.292Z,2.70
2022-08-09T08:00:35.681Z,2.88
2022-08-09T08:03:08.486Z,2.40
2022-08-09T08:05:54.363Z,2.50
2022-08-09T08:09:01.060Z,2.60
2022-08-09T08:12:09.640Z,2.58
2022-08-09T08:14:00.615Z,2.60
2022-08-09T08:16:29.706Z,2.58
2022-08-09T08:18:58.967Z,2.80
2022-08-09T08:21:26.569Z,2.45
2022-08-09T08:23:55.965Z,2.47
2022-08-09T08:26:26.659Z,2.75
2022-08-09T08:29:10.915Z,2.50
2022-08-09T08:32:02.678Z,2.20
2022-08-09T08:34:30.196Z,2.40
2022-08-09T08:36:57.420Z,2.60
2022-08-09T08:39:24.749Z,2.30
2022-08-09T08:41:53.399Z,2.45
2022-08-09T08:44:23.298Z,2.50
2022-08-09T08:46:59.814Z,2.67
2022-08-09T08:49:48.103Z,2.67
2022-08-09T08:52:52.767Z,2.67
2022-08-09T08:55:07.798Z,2.60
2022-08-09T08:57:37.314Z,2.53
2022-08-09T09:00:17.327Z,2.40
2022-08-09T09:02:53.313Z,2.10
2022-08-09T09:05:42.101Z,2.10
2022-08-09T09:08:30.963Z,2.22
2022-08-09T09:11:04.057Z,2.00
2022-08-09T09:13:55.030Z,2.00
2022-08-09T09:16:30.238Z,2.15
2022-08-09T09:19:37.788Z,2.13
2022-08-09T09:22:04.201Z,2.50
2022-08-09T09:24:39.572Z,2.53
2022-08-09T09:27:09.446Z,2.22
2022-08-09T09:30:26.120Z,2.07
2022-08-09T09:32:44.057Z,2.17
2022-08-09T09:35:15.735Z,2.20
2022-08-09T09:37:46.591Z,2.03
2022-08-09T09:40:13.902Z,2.33
2022-08-09T09:42:56.698Z,2.22
2022-08-09T09:45:25.739Z,2.00
2022-08-09T09:47:58.941Z,2.15
2022-08-09T09:53:43.956Z,2.20
2022-08-09T09:56:20.084Z,2.17
2022-08-09T09:59:00.509Z,2.35
2022-08-09T10:01:31.292Z,2.30
2022-08-09T10:04:30.590Z,2.40
2022-08-09T10:07:03.458Z,2.33
2022-08-09T10:09:49.166Z,2.30
2022-08-09T10:12:32.899Z,2.30
2022-08-09T10:15:50.720Z,2.28
2022-08-09T10:18:12.053Z,2.20
2022-08-09T10:20:44.843Z,2.53
2022-08-09T10:23:20.928Z,2.55
2022-08-09T10:26:06.486Z,2.30
2022-08-09T10:28:40.649Z,2.10
2022-08-09T10:34:09.906Z,2.05
2022-08-09T10:36:45.238Z,2.30
2022-08-09T10:39:15.825Z,2.20
2022-08-09T10:41:47.612Z,2.30
2022-08-09T10:44:23.056Z,2.20
2022-08-09T10:48:12.343Z,2.05
2022-08-09T10:50:16.108Z,2.28
2022-08-09T10:53:10.373Z,2.22
2022-08-09T10:55:58.684Z,2.20
2022-08-09T10:58:33.881Z,2.47
2022-08-09T11:03:05.636Z,2.10
2022-08-09T11:04:27.766Z,2.10
2022-08-09T11:07:00.384Z,2.20
2022-08-09T11:09:47.760Z,1.95
2022-08-09T11:12:29.907Z,2.03
2022-08-09T11:15:01.783Z,2.20
2022-08-09T11:17:32.735Z,2.15
2022-08-09T11:22:56.543Z,1.85
2022-08-09T11:25:45.374Z,1.90
2022-08-09T11:28:54.216Z,1.75
2022-08-09T11:31:52.555Z,2.05
2022-08-09T11:34:51.522Z,2.15
2022-08-09T11:37:40.571Z,1.92
2022-08-09T11:40:10.480Z,1.98
2022-08-09T11:42:55.288Z,2.00
2022-08-09T11:45:37.895Z,1.90
2022-08-09T11:48:26.568Z,1.90
2022-08-09T11:51:21.290Z,2.00
2022-08-09T11:54:01.398Z,1.88
2022-08-09T11:56:39.643Z,1.95
2022-08-09T11:59:33.664Z,1.92
2022-08-09T12:02:18.467Z,2.00
2022-08-09T12:04:57.961Z,1.65
2022-08-09T12:07:41.071Z,1.77
2022-08-09T12:10:31.757Z,1.80
2022-08-09T12:13:03.434Z,1.90
2022-08-09T12:15:49.729Z,2.10
2022-08-09T12:18:30.080Z,2.00
2022-08-09T12:21:02.731Z,1.95
2022-08-09T12:23:58.005Z,1.77
2022-08-09T12:26:26.112Z,1.80
2022-08-09T12:28:59.089Z,1.80
2022-08-09T12:32:02.507Z,1.70
2022-08-09T12:34:39.934Z,1.30
2022-08-09T12:37:22.122Z,1.13
2022-08-09T12:40:12.634Z,1.50
2022-08-09T12:42:44.793Z,1.40
2022-08-09T12:45:33.855Z,1.80
2022-08-09T12:48:00.662Z,1.55
2022-08-09T12:50:28.618Z,1.60
2022-08-09T12:53:09.190Z,1.63
2022-08-09T12:56:14.665Z,1.40
2022-08-09T12:58:30.664Z,1.70
2022-08-09T13:00:59.348Z,1.67
2022-08-09T13:03:58.493Z,1.70
2022-08-09T13:06:39.117Z,1.52
2022-08-09T13:09:08.178Z,1.60
2022-08-09T13:11:39.652Z,1.58
2022-08-09T13:14:41.102Z,1.45
2022-08-09T13:17:16.239Z,1.38
2022-08-09T13:20:08.529Z,1.55
2022-08-09T13:23:01.720Z,1.42
2022-08-09T13:25:53.278Z,1.38
2022-08-09T13:28:34.135Z,1.33
2022-08-09T13:32:19.338Z,1.25
2022-08-09T13:33:59.262Z,1.17
2022-08-09T13:36:42.288Z,1.50
2022-08-09T13:41:54.531Z,1.42
2022-08-09T13:42:10.990Z,1.23
2022-08-09T13:44:42.077Z,1.55
2022-08-09T13:47:43.999Z,1.27
2022-08-09T13:50:12.467Z,1.50
2022-08-09T13:52:47.693Z,1.55
2022-08-09T13:55:17.799Z,1.90
2022-08-09T13:57:52.974Z,1.90
2022-08-09T14:00:27.412Z,1.80
2022-08-09T14:03:16.779Z,1.60
2022-08-09T14:05:59.405Z,2.00
2022-08-09T14:08:31.582Z,1.70
2022-08-09T14:11:00.614Z,1.77
2022-08-09T14:14:22.168Z,1.98
2022-08-09T14:16:20.027Z,1.40
2022-08-09T14:18:58.175Z,1.80
2022-08-09T14:21:29.182Z,1.70
2022-08-09T14:24:00.999Z,1.88
2022-08-09T14:26:33.727Z,1.70
2022-08-09T14:29:08.174Z,1.80
2022-08-09T14:31:53.372Z,1.80
2022-08-09T14:34:30.798Z,1.77
2022-08-09T14:37:05.969Z,2.08
2022-08-09T14:39:45.938Z,1.65
2022-08-09T14:42:40.505Z,1.80
2022-08-09T14:46:40.521Z,1.95
2022-08-09T14:48:02.151Z,1.70
2022-08-09T14:50:32.654Z,1.52
2022-08-09T14:53:01.666Z,1.45
2022-08-09T14:55:32.113Z,1.70
2022-08-09T14:58:05.100Z,1.60
2022-08-09T15:00:35.179Z,1.60
2022-08-09T15:03:08.806Z,1.80
2022-08-09T15:05:39.620Z,2.08
2022-08-09T15:08:13.323Z,1.90
2022-08-09T15:10:44.021Z,1.67
2022-08-09T15:13:29.896Z,1.60
2022-08-09T15:16:16.393Z,1.75
2022-08-09T15:18:43.693Z,1.80
2022-08-09T15:21:57.606Z,2.00
2022-08-09T15:24:12.958Z,1.52
2022-08-09T15:26:46.445Z,2.08
2022-08-09T15:30:56.454Z,1.98
2022-08-09T15:32:02.013Z,1.73
2022-08-09T15:34:34.407Z,1.88
2022-08-09T15:37:04.109Z,1.83
2022-08-09T15:39:34.545Z,1.70
2022-08-09T15:44:32.638Z,1.70
2022-08-09T15:47:01.028Z,1.80
2022-08-09T15:49:28.590Z,1.50
2022-08-09T15:52:03.245Z,1.70
2022-08-09T15:54:44.579Z,1.85
2022-08-09T15:57:14.432Z,1.70
2022-08-09T15:59:51.943Z,1.65
2022-08-09T16:02:19.607Z,1.63
2022-08-09T16:04:54.584Z,1.75
2022-08-09T16:07:21.876Z,1.77
2022-08-09T16:10:02.575Z,1.77
2022-08-09T16:12:50.034Z,1.60
2022-08-09T16:16:04.392Z,1.48
2022-08-09T16:18:06.302Z,1.73
2022-08-09T16:20:36.352Z,1.60
2022-08-09T16:23:05.611Z,1.35
2022-08-09T16:25:39.602Z,1.55
2022-08-09T16:28:08.246Z,1.52
2022-08-09T16:30:44.341Z,1.50
2022-08-09T16:33:16.036Z,1.73
2022-08-09T16:35:55.987Z,1.70
2022-08-09T16:38:26.512Z,1.65
2022-08-09T16:40:53.970Z,1.70
2022-08-09T16:43:22.968Z,1.83
2022-08-09T16:45:53.508Z,1.67
2022-08-09T16:48:39.806Z,1.63
2022-08-09T16:51:13.617Z,1.48
2022-08-09T16:56:34.575Z,1.45
2022-08-09T17:01:38.828Z,1.80
2022-08-09T17:04:06.664Z,1.30
2022-08-09T17:07:09.238Z,1.40
2022-08-09T17:09:45.092Z,1.42
2022-08-09T17:12:09.366Z,1.35
2022-08-09T17:14:36.895Z,1.17
2022-08-09T17:17:25.865Z,1.33
2022-08-09T17:20:30.448Z,1.40
2022-08-09T17:22:49.818Z,1.15
2022-08-09T17:25:17.852Z,1.60
2022-08-09T17:27:49.443Z,1.38
2022-08-09T17:30:28.431Z,1.90
2022-08-09T17:33:05.170Z,1.60
2022-08-09T17:35:41.057Z,1.40
2022-08-09T17:40:56.959Z,1.50
2022-08-09T17:43:33.739Z,1.63
2022-08-09T17:46:09.245Z,1.45
2022-08-09T17:48:40.047Z,1.33
2022-08-09T17:51:18.592Z,1.40
2022-08-09T17:53:54.948Z,1.50
2022-08-09T17:56:35.188Z,1.25
2022-08-09T17:59:09.065Z,1.55
2022-08-09T18:02:03.234Z,1.50
2022-08-09T18:04:26.250Z,1.40
2022-08-09T18:06:55.209Z,1.38
2022-08-09T18:09:41.056Z,1.48
2022-08-09T18:12:14.788Z,1.58
2022-08-09T18:14:54.226Z,1.48
2022-08-09T18:18:02.829Z,1.67
2022-08-09T18:20:55.494Z,1.33
2022-08-09T18:23:05.063Z,1.30
2022-08-09T18:25:52.781Z,1.55
2022-08-09T18:30:34.531Z,1.60
2022-08-09T18:31:24.758Z,1.40
2022-08-09T18:34:00.617Z,1.42
2022-08-09T18:36:32.563Z,1.40
2022-08-09T18:39:06.000Z,1.75
2022-08-09T18:41:35.462Z,1.40
2022-08-09T18:44:04.799Z,1.52
2022-08-09T18:46:50.911Z,1.60
2022-08-09T18:49:32.357Z,1.67
2022-08-09T18:52:12.800Z,1.70
2022-08-09T18:54:47.278Z,1.45
2022-08-09T18:57:22.416Z,1.50
2022-08-09T18:59:57.788Z,1.52
2022-08-09T19:02:31.792Z,1.55
2022-08-09T19:05:19.799Z,1.52
2022-08-09T19:08:03.848Z,1.63
2022-08-09T19:10:39.841Z,1.40
2022-08-09T19:13:22.040Z,1.55
2022-08-09T19:15:56.322Z,1.50
2022-08-09T19:18:33.429Z,1.50
2022-08-09T19:21:05.277Z,1.50
2022-08-09T19:24:31.685Z,2.00
2022-08-09T19:26:29.175Z,1.70
2022-08-09T19:29:01.715Z,1.40
2022-08-09T19:31:45.562Z,1.60
2022-08-09T19:34:22.062Z,1.40
2022-08-09T19:36:55.256Z,1.55
2022-08-09T19:39:44.002Z,1.60
2022-08-09T19:42:14.568Z,1.50
2022-08-09T19:44:49.514Z,1.58
2022-08-09T19:47:22.786Z,1.55
2022-08-09T19:50:06.716Z,1.50
2022-08-09T19:52:51.341Z,1.60
2022-08-09T19:55:25.704Z,1.63
2022-08-09T19:57:58.298Z,1.60
2022-08-09T20:00:25.740Z,1.67
2022-08-09T20:04:10.524Z,1.75
2022-08-09T20:05:46.002Z,1.67
2022-08-09T20:08:16.061Z,1.60
2022-08-09T20:10:52.637Z,1.77
2022-08-09T20:13:20.753Z,1.92
2022-08-09T20:16:33.460Z,1.60
2022-08-09T20:18:36.330Z,1.63
2022-08-09T20:21:03.967Z,1.70
2022-08-09T20:23:38.988Z,1.55
2022-08-09T20:26:13.267Z,1.70
2022-08-09T20:28:48.456Z,1.77
2022-08-09T20:31:17.654Z,1.75
2022-08-09T20:33:45.939Z,1.38
2022-08-09T20:36:14.012Z,1.45
2022-08-09T20:39:18.731Z,1.58
2022-08-09T20:41:35.170Z,1.77
2022-08-09T20:44:06.812Z,1.52
2022-08-09T20:46:43.195Z,1.60
2022-08-09T20:49:13.740Z,1.65
2022-08-09T20:51:42.096Z,1.60
2022-08-09T20:54:16.602Z,1.67
2022-08-09T20:56:46.719Z,1.70
2022-08-09T20:59:16.898Z,1.63
2022-08-09T21:01:50.646Z,1.65
2022-08-09T21:05:53.592Z,1.60
2022-08-09T21:07:12.195Z,1.60
2022-08-09T21:09:56.852Z,1.50
2022-08-09T21:15:15.448Z,1.40
2022-08-09T21:18:24.110Z,1.55
2022-08-09T21:20:31.892Z,1.77
2022-08-09T21:23:00.571Z,1.73
2022-08-09T21:25:55.295Z,1.80
2022-08-09T21:28:33.170Z,1.50
2022-08-09T21:31:17.142Z,1.73
2022-08-09T21:33:52.341Z,1.70
2022-08-09T21:36:28.496Z,1.55
2022-08-09T21:38:59.284Z,1.70
2022-08-09T21:42:05.711Z,1.73
2022-08-09T21:44:33.048Z,1.95
2022-08-09T21:47:05.075Z,1.70
2022-08-09T21:49:40.074Z,1.77
2022-08-09T21:52:16.722Z,1.80
2022-08-09T21:54:59.613Z,1.50
2022-08-09T21:57:39.586Z,1.70
2022-08-09T22:00:32.793Z,1.85
2022-08-09T22:03:07.160Z,1.45
2022-08-09T22:05:42.020Z,1.80
2022-08-09T22:08:16.464Z,1.80
2022-08-09T22:11:50.167Z,1.75
2022-08-09T22:13:34.781Z,1.52
2022-08-09T22:16:05.013Z,1.60
2022-08-09T22:18:37.170Z,1.90
2022-08-09T22:21:09.993Z,1.73
2022-08-09T22:23:59.025Z,1.58
2022-08-09T22:26:35.562Z,1.60
2022-08-09T22:29:09.489Z,1.58
2022-08-09T22:31:50.122Z,1.60
2022-08-09T22:34:25.721Z,1.60
2022-08-09T22:36:55.136Z,1.70
2022-08-09T22:39:57.481Z,1.70
2022-08-09T22:42:21.055Z,1.70
2022-08-09T22:45:00.566Z,1.67
2022-08-09T22:48:14.551Z,1.70
2022-08-09T22:50:31.034Z,1.85
2022-08-09T22:52:59.492Z,1.80
2022-08-09T22:56:29.609Z,2.00
2022-08-09T22:58:20.405Z,1.90
2022-08-09T23:01:06.001Z,1.77
2022-08-09T23:04:04.252Z,1.90
2022-08-09T23:06:34.819Z,1.85
2022-08-09T23:09:07.311Z,1.70
2022-08-09T23:11:34.982Z,1.70
2022-08-09T23:14:03.759Z,1.83
2022-08-09T23:16:31.918Z,2.00
2022-08-09T23:18:59.404Z,1.80
2022-08-09T23:21:32.739Z,1.58
2022-08-09T23:24:06.543Z,1.70
2022-08-09T23:26:36.081Z,1.80
2022-08-09T23:29:05.183Z,1.90
2022-08-09T23:31:32.948Z,2.45
2022-08-09T23:34:00.767Z,1.92
2022-08-09T23:36:30.154Z,1.92
2022-08-09T23:38:57.414Z,2.20
2022-08-09T23:41:28.295Z,2.13
2022-08-09T23:43:58.772Z,2.10
2022-08-09T23:46:26.715Z,1.85
2022-08-09T23:48:54.039Z,2.15
2022-08-09T23:51:21.370Z,2.40
2022-08-09T23:53:50.636Z,2.15
2022-08-09T23:56:52.690Z,2.30
2022-08-09T23:59:07.652Z,2.00
